Terminal Aerodrome Forecast
Issued by NWS

Home | Current Version | Previous Version | Text Only | Print | Product List | Glossary On
Versions: 1 2 3 4 5 6 7 8 9 10 11 12 13 14 15
000
FTUS43 KMQT 261100
TAFIWD
TAF
KIWD 261122Z 2612/2712 24006KT P6SM BKN012
     FM261400 30009KT P6SM SCT025
     FM262200 22004KT P6SM SCT050 BKN100
     FM270100 20006KT P6SM -SHRA BKN050
     FM270900 29004KT P6SM VCSH OVC015
      AMD NOT SKED=

USA.gov is the U.S. government's official web portal to all federal, state and local government web resources and services.